Time;durP1;ratioP1;P1;durP2;ratioP2;P2;SDS_P1;SDS_P2;PMS_P1;PMS_P2;Temp;Humidity;BMP_temperature;BMP_pressure;BME280_temperature;BME280_humidity;BME280_pressure;Samples;Min_cycle;Max_cycle;Signal;HPM_P1;HPM_P2
2024/01/29 00:00:57;;;;;;;2.53;2.42;;;;;;;0.30;100.00;99830.81;4190923;28;20295;-52
2024/01/29 00:02:59;;;;;;;3.42;3.22;;;;;;;0.26;100.00;99829.41;4176812;28;20228;-51
2024/01/29 00:05:01;;;;;;;6.82;3.15;;;;;;;0.20;100.00;99831.88;4173118;28;20207;-51
2024/01/29 00:07:03;;;;;;;3.07;2.87;;;;;;;0.24;100.00;99826.03;4175907;28;20291;-50
2024/01/29 00:09:05;;;;;;;2.43;2.23;;;;;;;0.31;100.00;99826.25;4176821;28;20207;-52
2024/01/29 00:11:07;;;;;;;2.73;2.53;;;;;;;0.24;100.00;99826.03;4173880;28;20255;-52
2024/01/29 00:13:09;;;;;;;5.20;3.00;;;;;;;0.09;100.00;99824.84;4176710;28;20596;-51
2024/01/29 00:15:11;;;;;;;4.90;2.53;;;;;;;0.09;100.00;99827.53;4177276;28;20569;-51
2024/01/29 00:17:13;;;;;;;3.07;2.87;;;;;;;0.06;100.00;99817.09;4177548;28;20677;-51
2024/01/29 00:19:14;;;;;;;2.57;2.47;;;;;;;0.04;100.00;99829.00;4177371;28;20592;-52
2024/01/29 00:21:16;;;;;;;3.53;3.22;;;;;;;0.07;100.00;99817.94;4176950;28;20269;-52
2024/01/29 00:23:18;;;;;;;3.33;3.13;;;;;;;0.12;100.00;99819.19;4175604;28;20220;-51
2024/01/29 00:25:20;;;;;;;8.48;3.05;;;;;;;0.12;100.00;99816.47;4173917;28;20270;-51
2024/01/29 00:27:22;;;;;;;2.70;2.30;;;;;;;0.20;100.00;99823.81;4176412;28;20212;-51
2024/01/29 00:29:23;;;;;;;3.67;3.47;;;;;;;0.11;100.00;99819.31;4175578;28;20242;-52
2024/01/29 00:31:25;;;;;;;4.30;3.87;;;;;;;0.12;100.00;99816.47;4191969;28;20214;-51
2024/01/29 00:33:27;;;;;;;6.35;4.03;;;;;;;0.15;100.00;99821.53;4171036;28;20234;-51
2024/01/29 00:35:31;;;;;;;4.55;4.25;;;;;;;0.17;100.00;99808.81;4175050;28;20212;-52
2024/01/29 00:37:33;;;;;;;2.47;2.38;;;;;;;0.11;100.00;99809.41;4190080;28;20221;-51
2024/01/29 00:39:35;;;;;;;3.50;3.20;;;;;;;0.13;100.00;99811.94;4174593;28;20374;-51
2024/01/29 00:41:37;;;;;;;3.42;3.20;;;;;;;0.06;100.00;99805.47;4169047;28;20211;-51
2024/01/29 00:43:38;;;;;;;2.53;2.33;;;;;;;0.04;100.00;99810.16;4191971;28;20227;-51
2024/01/29 00:45:40;;;;;;;3.95;3.60;;;;;;;0.02;100.00;99815.69;4191641;28;20732;-51
2024/01/29 00:47:42;;;;;;;3.20;2.90;;;;;;;0.01;100.00;99822.06;4175147;28;20668;-51
2024/01/29 00:49:44;;;;;;;2.97;2.77;;;;;;;0.02;100.00;99804.94;4178082;28;20207;-52
2024/01/29 00:51:46;;;;;;;3.90;2.30;;;;;;;0.00;100.00;99806.94;4176211;28;20240;-51
2024/01/29 00:53:48;;;;;;;3.60;3.40;;;;;;;0.00;100.00;99812.31;4175954;28;20232;-51
2024/01/29 00:55:50;;;;;;;3.75;3.47;;;;;;;0.02;100.00;99802.22;4179678;28;20203;-52
2024/01/29 00:57:51;;;;;;;3.90;3.55;;;;;;;-0.01;100.00;99805.25;4178675;28;20215;-51
2024/01/29 00:59:55;;;;;;;11.57;2.63;;;;;;;0.01;100.00;99803.25;4174102;28;20200;-51
2024/01/29 01:01:57;;;;;;;4.03;3.83;;;;;;;0.19;100.00;99804.09;4159718;28;20550;-51
2024/01/29 01:03:59;;;;;;;3.57;3.37;;;;;;;-0.02;100.00;99808.94;4171886;28;20359;-52
2024/01/29 01:06:01;;;;;;;3.13;2.85;;;;;;;-0.02;100.00;99797.31;4171277;28;20780;-51
2024/01/29 01:08:03;;;;;;;3.05;2.88;;;;;;;0.03;100.00;99801.25;4174050;28;20207;-52
2024/01/29 01:10:05;;;;;;;4.90;3.22;;;;;;;-0.04;100.00;99800.16;4191549;28;20203;-52
2024/01/29 01:12:07;;;;;;;2.53;2.35;;;;;;;0.08;100.00;99804.31;4170630;28;20211;-51
2024/01/29 01:14:09;;;;;;;5.03;3.97;;;;;;;-0.01;100.00;99805.25;4175099;28;20219;-52
2024/01/29 01:16:11;;;;;;;2.50;2.30;;;;;;;-0.02;100.00;99808.94;4192082;28;20210;-51
2024/01/29 01:18:12;;;;;;;2.67;2.55;;;;;;;-0.08;100.00;99813.22;4169835;28;20235;-51
2024/01/29 01:20:14;;;;;;;2.73;2.53;;;;;;;-0.13;100.00;99806.44;4174357;28;20286;-51
2024/01/29 01:22:16;;;;;;;2.33;2.17;;;;;;;-0.13;100.00;99811.81;4168517;28;20204;-50
2024/01/29 01:24:18;;;;;;;2.60;2.50;;;;;;;-0.17;100.00;99808.75;4185427;28;20192;-52
2024/01/29 01:26:20;;;;;;;2.65;2.45;;;;;;;-0.14;100.00;99811.16;4191623;28;20199;-51
2024/01/29 01:28:21;;;;;;;3.78;3.50;;;;;;;-0.14;100.00;99805.75;4190975;28;20692;-51
2024/01/29 01:30:23;;;;;;;2.78;2.58;;;;;;;-0.16;100.00;99818.53;4192548;28;20779;-51
2024/01/29 01:32:25;;;;;;;3.20;3.00;;;;;;;-0.13;100.00;99812.84;4190495;28;20725;-52
2024/01/29 01:34:27;;;;;;;2.05;1.95;;;;;;;-0.19;100.00;99813.44;4168874;28;20263;-51
2024/01/29 01:36:32;;;;;;;2.53;2.33;;;;;;;-0.18;100.00;99817.81;4190915;28;20282;-51
2024/01/29 01:38:34;;;;;;;3.55;3.22;;;;;;;-0.16;100.00;99813.16;4173097;28;20208;-51
2024/01/29 01:40:36;;;;;;;3.27;2.97;;;;;;;-0.18;100.00;99807.06;4174144;28;20208;-51
2024/01/29 01:42:39;;;;;;;3.57;3.27;;;;;;;-0.16;100.00;99815.84;4174751;28;20700;-52
2024/01/29 01:44:41;;;;;;;7.03;2.47;;;;;;;-0.21;100.00;99808.19;4174708;28;20212;-51
2024/01/29 01:46:43;;;;;;;3.80;3.27;;;;;;;-0.20;100.00;99809.06;4156894;28;20209;-51
2024/01/29 01:48:45;;;;;;;6.90;2.85;;;;;;;-0.24;100.00;99813.03;4171369;28;20780;-51
2024/01/29 01:50:47;;;;;;;2.50;2.40;;;;;;;-0.24;100.00;99808.50;4176171;28;20216;-52
2024/01/29 01:52:48;;;;;;;2.60;2.50;;;;;;;-0.21;100.00;99812.75;4174584;28;20558;-51
2024/01/29 01:54:52;;;;;;;2.60;2.50;;;;;;;-0.14;100.00;99821.91;4189620;28;20235;-51
2024/01/29 01:56:55;;;;;;;3.85;2.78;;;;;;;-0.18;100.00;99818.66;4189056;28;20373;-52
2024/01/29 01:58:59;;;;;;;4.10;3.80;;;;;;;-0.24;100.00;99807.66;4188492;28;20211;-52
2024/01/29 02:01:01;;;;;;;2.80;2.60;;;;;;;-0.24;100.00;99813.88;4172310;28;20604;-50
2024/01/29 02:03:03;;;;;;;2.57;2.37;;;;;;;-0.21;100.00;99812.75;4170131;28;20225;-51
2024/01/29 02:05:05;;;;;;;3.77;3.50;;;;;;;-0.22;100.00;99808.38;4151623;28;20299;-51
2024/01/29 02:07:08;;;;;;;4.07;3.77;;;;;;;-0.26;100.00;99812.34;4173093;28;20208;-52
2024/01/29 02:09:10;;;;;;;2.20;2.10;;;;;;;-0.25;100.00;99806.81;4177930;28;20235;-52
2024/01/29 02:11:11;;;;;;;3.25;3.05;;;;;;;-0.26;100.00;99812.34;4178733;28;20207;-51
2024/01/29 02:13:13;;;;;;;4.13;3.73;;;;;;;-0.23;100.00;99809.34;4173239;28;20256;-51
2024/01/29 02:15:15;;;;;;;13.63;2.95;;;;;;;-0.31;100.00;99806.56;4176816;28;20696;-51
2024/01/29 02:17:17;;;;;;;4.37;3.63;;;;;;;-0.20;100.00;99815.25;4171616;28;20650;-52
2024/01/29 02:19:22;;;;;;;3.97;2.33;;;;;;;-0.31;100.00;99811.94;4179424;28;20200;-53
2024/01/29 02:21:24;;;;;;;3.30;3.10;;;;;;;-0.34;100.00;99814.94;4177226;28;20287;-52
2024/01/29 02:23:26;;;;;;;2.90;2.60;;;;;;;-0.35;100.00;99805.19;4177438;28;20315;-52
2024/01/29 02:25:28;;;;;;;13.87;3.30;;;;;;;-0.35;100.00;99807.88;4190137;28;20717;-53
2024/01/29 02:27:30;;;;;;;3.87;3.47;;;;;;;-0.36;100.00;99804.31;4178904;28;20211;-52
2024/01/29 02:29:32;;;;;;;4.83;4.27;;;;;;;-0.41;100.00;99813.84;4180903;28;20211;-54
2024/01/29 02:31:33;;;;;;;3.57;3.37;;;;;;;-0.38;100.00;99810.84;4170876;28;20264;-52
2024/01/29 02:33:35;;;;;;;3.33;3.03;;;;;;;-0.26;100.00;99804.28;4191226;28;20228;-52
2024/01/29 02:35:37;;;;;;;3.77;3.57;;;;;;;-0.36;100.00;99811.56;4177595;28;20224;-51
2024/01/29 02:37:39;;;;;;;4.43;4.13;;;;;;;-0.39;100.00;99806.47;4176265;28;20200;-52
2024/01/29 02:39:41;;;;;;;3.87;3.27;;;;;;;-0.36;100.00;99806.19;4192813;28;20996;-51
2024/01/29 02:41:43;;;;;;;3.07;2.87;;;;;;;-0.39;100.00;99809.16;4161103;28;20204;-53
2024/01/29 02:43:44;;;;;;;3.40;3.20;;;;;;;-0.40;100.00;99802.09;4172440;28;20226;-52
2024/01/29 02:45:48;;;;;;;3.20;2.95;;;;;;;-0.47;100.00;99803.69;4182011;28;20226;-52
2024/01/29 02:47:50;;;;;;;3.93;3.60;;;;;;;-0.46;100.00;99802.69;4175817;28;20216;-52
2024/01/29 02:49:52;;;;;;;2.67;2.47;;;;;;;-0.49;100.00;99798.44;4175273;28;20202;-51
2024/01/29 02:51:54;;;;;;;4.17;3.87;;;;;;;-0.49;100.00;99806.53;4176655;28;20653;-52
2024/01/29 02:53:56;;;;;;;10.17;4.23;;;;;;;-0.41;100.00;99805.78;4175895;28;20224;-51
2024/01/29 02:55:58;;;;;;;5.30;3.20;;;;;;;-0.48;100.00;99794.75;4174854;28;20228;-52
2024/01/29 02:58:01;;;;;;;2.80;2.60;;;;;;;-0.41;100.00;99803.91;4175767;28;20196;-51
2024/01/29 03:00:04;;;;;;;2.73;2.57;;;;;;;-0.42;100.00;99798.72;4176125;28;20215;-52
2024/01/29 03:02:07;;;;;;;14.83;3.67;;;;;;;-0.49;100.00;99803.00;4174005;28;20574;-53
2024/01/29 03:04:08;;;;;;;2.67;2.47;;;;;;;-0.53;100.00;99796.22;4178586;28;20208;-52
2024/01/29 03:06:10;;;;;;;2.57;2.43;;;;;;;-0.53;100.00;99801.59;4175514;28;20650;-52
2024/01/29 03:08:12;;;;;;;6.97;3.47;;;;;;;-0.39;100.00;99803.78;4175994;28;20292;-52
2024/01/29 03:10:14;;;;;;;3.40;3.20;;;;;;;-0.46;100.00;99792.78;4192641;28;20204;-51
2024/01/29 03:12:16;;;;;;;3.83;3.37;;;;;;;-0.43;100.00;99791.63;4177095;28;20212;-50
2024/01/29 03:14:18;;;;;;;12.40;3.40;;;;;;;-0.51;100.00;99791.53;4191100;28;20231;-51
2024/01/29 03:16:19;;;;;;;3.60;3.30;;;;;;;-0.50;100.00;99791.38;4171017;28;20204;-51
2024/01/29 03:18:21;;;;;;;3.20;2.97;;;;;;;-0.54;100.00;99794.53;4173486;28;20306;-51
2024/01/29 03:20:23;;;;;;;2.73;2.63;;;;;;;-0.52;100.00;99795.22;4176483;28;20219;-52
2024/01/29 03:22:25;;;;;;;3.53;3.23;;;;;;;-0.55;100.00;99793.66;4176559;28;20887;-51
2024/01/29 03:24:26;;;;;;;3.20;2.90;;;;;;;-0.47;100.00;99795.63;4177019;28;20212;-51
2024/01/29 03:26:29;;;;;;;2.63;2.50;;;;;;;-0.43;100.00;99791.63;4175630;28;20208;-53
2024/01/29 03:28:30;;;;;;;3.50;3.20;;;;;;;-0.53;100.00;99798.91;4190410;28;20656;-53
2024/01/29 03:30:32;;;;;;;2.80;2.70;;;;;;;-0.53;100.00;99793.53;4174669;28;20211;-53
2024/01/29 03:32:34;;;;;;;3.43;3.00;;;;;;;-0.55;100.00;99796.34;4169757;28;20228;-52
2024/01/29 03:34:40;;;;;;;5.83;3.40;;;;;;;-0.52;100.00;99793.41;4190610;28;20313;-52
2024/01/29 03:36:44;;;;;;;4.10;3.40;;;;;;;-0.51;100.00;99799.59;4176690;28;20282;-52
2024/01/29 03:38:45;;;;;;;3.67;3.37;;;;;;;-0.61;100.00;99788.06;4175872;28;20553;-53
2024/01/29 03:40:47;;;;;;;2.13;2.03;;;;;;;-0.46;100.00;99797.31;4175281;28;20216;-53
2024/01/29 03:42:49;;;;;;;2.97;2.77;;;;;;;-0.60;100.00;99787.88;4191400;28;20224;-52
2024/01/29 03:44:51;;;;;;;3.10;2.93;;;;;;;-0.46;100.00;99781.19;4175855;28;20232;-52
2024/01/29 03:46:53;;;;;;;3.27;3.07;;;;;;;-0.49;100.00;99785.00;4176415;28;20208;-52
2024/01/29 03:48:54;;;;;;;3.50;3.37;;;;;;;-0.56;100.00;99780.41;4178521;28;20204;-52
2024/01/29 03:50:56;;;;;;;3.60;3.40;;;;;;;-0.59;100.00;99791.44;4177346;28;20235;-52
2024/01/29 03:52:59;;;;;;;3.27;2.97;;;;;;;-0.55;100.00;99788.28;4188623;28;20261;-52
2024/01/29 03:55:01;;;;;;;3.60;3.40;;;;;;;-0.55;100.00;99782.09;4177407;28;20347;-52
2024/01/29 03:57:02;;;;;;;3.20;3.00;;;;;;;-0.53;100.00;99791.69;4170948;28;20247;-52
2024/01/29 03:59:04;;;;;;;3.80;3.57;;;;;;;-0.54;100.00;99792.66;4192864;28;20569;-52
2024/01/29 04:01:06;;;;;;;2.83;2.63;;;;;;;-0.54;100.00;99792.66;4176748;28;20204;-52
2024/01/29 04:03:11;;;;;;;2.80;2.57;;;;;;;-0.53;100.00;99785.47;4177596;28;20224;-53
2024/01/29 04:05:13;;;;;;;2.90;2.10;;;;;;;-0.53;100.00;99791.69;4175627;28;20679;-53
2024/01/29 04:07:16;;;;;;;4.67;4.30;;;;;;;-0.53;100.00;99793.53;4178123;28;20258;-53
2024/01/29 04:09:21;;;;;;;2.73;2.53;;;;;;;-0.52;100.00;99793.41;4174994;28;20208;-53
2024/01/29 04:11:23;;;;;;;3.70;3.33;;;;;;;-0.54;100.00;99797.22;4190605;28;20819;-52
2024/01/29 04:13:24;;;;;;;2.70;2.60;;;;;;;-0.52;100.00;99789.84;4175451;28;20698;-51
2024/01/29 04:15:26;;;;;;;3.57;3.37;;;;;;;-0.53;100.00;99790.84;4175139;28;20266;-52
2024/01/29 04:17:28;;;;;;;2.63;2.40;;;;;;;-0.53;100.00;99791.69;4175841;28;20211;-52
2024/01/29 04:19:30;;;;;;;3.27;3.07;;;;;;;-0.50;100.00;99793.22;4183885;28;20223;-51
2024/01/29 04:21:32;;;;;;;3.50;3.20;;;;;;;-0.53;100.00;99780.09;4175929;28;20298;-50
2024/01/29 04:23:35;;;;;;;4.30;3.73;;;;;;;-0.41;100.00;99789.66;4174697;28;20228;-51
2024/01/29 04:25:37;;;;;;;2.23;2.13;;;;;;;-0.47;100.00;99779.50;4176084;28;20299;-52
2024/01/29 04:27:38;;;;;;;4.30;3.50;;;;;;;-0.56;100.00;99780.41;4176882;28;20250;-51
2024/01/29 04:29:40;;;;;;;3.03;2.83;;;;;;;-0.63;100.00;99792.72;4175605;28;20200;-53
2024/01/29 04:31:42;;;;;;;5.03;3.77;;;;;;;-0.62;100.00;99786.38;4175629;28;20270;-52
2024/01/29 04:33:44;;;;;;;3.97;3.67;;;;;;;-0.65;100.00;99783.97;4174802;28;20231;-52
2024/01/29 04:35:46;;;;;;;3.37;2.63;;;;;;;-0.66;100.00;99790.34;4173451;28;20224;-54
2024/01/29 04:37:47;;;;;;;3.20;3.00;;;;;;;-0.63;100.00;99790.03;4189411;28;20214;-52
2024/01/29 04:39:49;;;;;;;2.77;2.57;;;;;;;-0.62;100.00;99786.38;4169648;28;20208;-52
2024/01/29 04:41:52;;;;;;;3.00;2.80;;;;;;;-0.70;100.00;99787.09;4174703;28;20269;-53
2024/01/29 04:43:54;;;;;;;2.70;2.57;;;;;;;-0.71;100.00;99788.09;4170269;28;20694;-51
2024/01/29 04:45:56;;;;;;;2.77;2.57;;;;;;;-0.70;100.00;99794.31;4174707;28;20192;-52
2024/01/29 04:47:58;;;;;;;2.87;2.67;;;;;;;-0.63;100.00;99785.50;4174865;28;20616;-52
2024/01/29 04:50:00;;;;;;;5.90;4.17;;;;;;;-0.57;100.00;99784.91;4169705;28;20251;-52
2024/01/29 04:52:02;;;;;;;2.67;2.57;;;;;;;-0.64;100.00;99791.03;4174859;28;20207;-52
2024/01/29 04:54:04;;;;;;;3.70;3.27;;;;;;;-0.66;100.00;99784.97;4175129;28;20351;-52
2024/01/29 04:56:06;;;;;;;4.13;3.83;;;;;;;-0.70;100.00;99786.25;4189308;28;20728;-52
2024/01/29 04:58:08;;;;;;;3.27;2.97;;;;;;;-0.71;100.00;99782.72;4171331;28;20215;-52
2024/01/29 05:00:10;;;;;;;3.33;3.03;;;;;;;-0.73;100.00;99783.88;4172204;28;20299;-52
2024/01/29 05:02:13;;;;;;;2.80;2.70;;;;;;;-0.74;100.00;99782.19;4171684;28;20204;-52
2024/01/29 05:04:14;;;;;;;4.63;2.97;;;;;;;-0.63;100.00;99777.44;4171291;28;20216;-52
2024/01/29 05:06:16;;;;;;;3.40;3.17;;;;;;;-0.69;100.00;99777.22;4171986;28;20204;-52
2024/01/29 05:08:19;;;;;;;3.63;3.13;;;;;;;-0.73;100.00;99775.81;4190060;28;20203;-53
2024/01/29 05:10:20;;;;;;;3.43;3.23;;;;;;;-0.79;100.00;99779.09;4168099;28;20204;-52
2024/01/29 05:12:22;;;;;;;3.90;2.67;;;;;;;-0.84;100.00;99781.34;4172655;28;20819;-51
2024/01/29 05:14:27;;;;;;;3.53;3.30;;;;;;;-0.83;100.00;99785.72;4186182;28;20222;-54
2024/01/29 05:16:29;;;;;;;10.33;2.97;;;;;;;-0.85;100.00;99780.53;4172261;28;20224;-52
2024/01/29 05:18:33;;;;;;;2.97;2.77;;;;;;;-0.84;100.00;99784.03;4189324;28;20212;-52
2024/01/29 05:20:35;;;;;;;3.80;2.50;;;;;;;-0.79;100.00;99781.75;4172521;28;20200;-53
2024/01/29 05:22:37;;;;;;;3.70;3.40;;;;;;;-0.75;100.00;99792.06;4159035;28;20779;-51
2024/01/29 05:24:39;;;;;;;2.93;2.73;;;;;;;-0.64;100.00;99783.81;4171431;28;20216;-53
2024/01/29 05:26:41;;;;;;;2.63;2.43;;;;;;;-0.79;100.00;99785.31;4175789;28;20207;-51
2024/01/29 05:28:43;;;;;;;3.13;2.93;;;;;;;-0.73;100.00;99791.94;4185781;28;20207;-52
2024/01/29 05:30:45;;;;;;;2.90;2.70;;;;;;;-0.61;100.00;99790.75;4172972;28;20295;-54
2024/01/29 05:32:46;;;;;;;3.60;3.40;;;;;;;-0.77;100.00;99790.53;4187616;28;20245;-57
2024/01/29 05:34:48;;;;;;;2.37;2.27;;;;;;;-0.77;100.00;99782.47;4172862;28;20197;-52
2024/01/29 05:36:50;;;;;;;2.27;2.10;;;;;;;-0.80;100.00;99798.88;4168046;28;20224;-53
2024/01/29 05:38:52;;;;;;;4.47;4.17;;;;;;;-0.86;100.00;99805.72;4169948;28;20219;-55
2024/01/29 05:40:54;;;;;;;3.80;3.50;;;;;;;-0.87;100.00;99803.97;4169227;28;20220;-52
2024/01/29 05:42:56;;;;;;;3.07;2.83;;;;;;;-0.82;100.00;99800.88;4175874;28;20227;-55
2024/01/29 05:44:58;;;;;;;3.03;2.83;;;;;;;-0.81;100.00;99807.94;4186908;28;20215;-53
2024/01/29 05:46:59;;;;;;;3.37;3.17;;;;;;;-0.86;100.00;99811.06;4172899;28;20211;-54
2024/01/29 05:49:01;;;;;;;4.10;3.67;;;;;;;-0.84;100.00;99805.53;4171951;28;20256;-57
2024/01/29 05:51:03;;;;;;;3.70;3.40;;;;;;;-0.85;100.00;99811.91;4172526;28;20240;-54
2024/01/29 05:53:05;;;;;;;4.97;4.57;;;;;;;-0.85;100.00;99806.53;4173762;28;20219;-53
2024/01/29 05:55:07;;;;;;;3.07;2.87;;;;;;;-0.84;100.00;99810.91;4174867;28;20200;-53
2024/01/29 05:57:10;;;;;;;3.53;3.33;;;;;;;-0.86;100.00;99815.59;4174346;28;20716;-53
2024/01/29 05:59:11;;;;;;;2.27;2.13;;;;;;;-0.75;100.00;99823.47;4173667;28;20212;-55
2024/01/29 06:01:13;;;;;;;4.77;4.37;;;;;;;-0.79;100.00;99816.69;4175828;28;20286;-52
2024/01/29 06:03:16;;;;;;;4.57;4.27;;;;;;;-0.76;100.00;99821.75;4175411;28;20220;-53
2024/01/29 06:05:18;;;;;;;3.43;3.20;;;;;;;-1.00;100.00;99824.13;4173319;28;20204;-53
2024/01/29 06:07:20;;;;;;;3.60;3.30;;;;;;;-1.14;100.00;99824.56;4174524;28;20208;-53
2024/01/29 06:09:24;;;;;;;3.27;3.07;;;;;;;-0.99;100.00;99823.13;4190523;28;20211;-55
2024/01/29 06:11:27;;;;;;;3.13;2.93;;;;;;;-0.90;100.00;99819.56;4173926;28;20304;-57
2024/01/29 06:13:29;;;;;;;2.80;2.67;;;;;;;-0.91;100.00;99818.72;4187759;28;20700;-54
2024/01/29 06:15:30;;;;;;;4.37;4.07;;;;;;;-1.00;100.00;99813.38;4173130;28;20228;-57
2024/01/29 06:17:32;;;;;;;4.07;3.87;;;;;;;-0.98;100.00;99822.13;4175651;28;20261;-54
2024/01/29 06:19:34;;;;;;;4.63;3.80;;;;;;;-0.97;100.00;99826.50;4177422;28;20569;-53
2024/01/29 06:21:56;;;;;;;3.93;3.63;;;;;;;-0.91;100.00;99828.59;4175677;28;20200;-53
2024/01/29 06:23:58;;;;;;;2.97;2.77;;;;;;;-0.86;100.00;99831.72;4177013;28;20236;-52
2024/01/29 06:26:00;;;;;;;3.80;3.50;;;;;;;-0.76;100.00;99832.50;4193571;28;20634;-52
2024/01/29 06:28:06;;;;;;;4.13;3.23;;;;;;;-0.85;100.00;99828.03;4190885;28;20207;-53
2024/01/29 06:30:08;;;;;;;4.13;3.83;;;;;;;-0.88;100.00;99834.53;4174256;28;20238;-52
2024/01/29 06:32:10;;;;;;;5.10;4.67;;;;;;;-0.93;100.00;99835.97;4192628;28;20322;-52
2024/01/29 06:34:12;;;;;;;3.23;3.03;;;;;;;-0.92;100.00;99837.66;4177006;28;20650;-52
2024/01/29 06:36:17;;;;;;;3.17;2.97;;;;;;;-0.93;100.00;99835.97;4177277;28;20232;-53
2024/01/29 06:38:18;;;;;;;4.17;3.67;;;;;;;-0.91;100.00;99844.72;4175339;28;20199;-52
2024/01/29 06:40:26;;;;;;;3.20;3.00;;;;;;;-0.96;100.00;99841.63;4172172;28;20594;-52
2024/01/29 06:42:28;;;;;;;6.70;3.93;;;;;;;-0.91;100.00;99853.63;4173447;28;20262;-53
2024/01/29 06:44:30;;;;;;;3.90;3.70;;;;;;;-0.94;100.00;99845.84;4173715;28;20222;-53
2024/01/29 06:46:32;;;;;;;4.40;4.03;;;;;;;-0.87;100.00;99846.13;4175603;28;20208;-51
2024/01/29 06:48:37;;;;;;;3.67;3.33;;;;;;;-0.95;100.00;99848.72;4177116;28;20212;-52
2024/01/29 06:50:40;;;;;;;3.07;2.90;;;;;;;-0.98;100.00;99844.47;4172615;28;20215;-52
2024/01/29 06:52:41;;;;;;;4.27;3.53;;;;;;;-0.97;100.00;99839.94;4172968;28;20579;-53
2024/01/29 06:54:43;;;;;;;5.90;4.63;;;;;;;-0.91;100.00;99850.09;4171216;28;20204;-52
2024/01/29 06:56:46;;;;;;;4.97;3.90;;;;;;;-0.93;100.00;99854.78;4176121;28;20267;-52
2024/01/29 06:58:47;;;;;;;2.20;2.10;;;;;;;-0.94;100.00;99855.78;4175692;28;20210;-52
2024/01/29 07:00:50;;;;;;;4.13;3.73;;;;;;;-0.96;100.00;99858.59;4174372;28;20246;-50
2024/01/29 07:02:52;;;;;;;3.90;3.60;;;;;;;-0.97;100.00;99856.03;4189482;28;20232;-52
2024/01/29 07:04:54;;;;;;;4.93;4.37;;;;;;;-0.95;100.00;99856.78;4172510;28;20601;-51
2024/01/29 07:06:56;;;;;;;3.97;3.67;;;;;;;-0.90;100.00;99858.00;4173698;28;20207;-51
2024/01/29 07:08:58;;;;;;;4.43;3.43;;;;;;;-0.93;100.00;99863.69;4174838;28;20254;-52
2024/01/29 07:10:59;;;;;;;6.80;3.63;;;;;;;-1.02;100.00;99861.03;4173276;28;20212;-52
2024/01/29 07:13:01;;;;;;;4.00;3.40;;;;;;;-0.98;100.00;99859.72;4174499;28;20951;-52
2024/01/29 07:15:03;;;;;;;3.07;2.87;;;;;;;-0.94;100.00;99861.97;4171265;28;20209;-51
2024/01/29 07:17:05;;;;;;;3.83;3.63;;;;;;;-1.02;100.00;99863.72;4187902;28;20231;-52
2024/01/29 07:19:07;;;;;;;5.63;5.23;;;;;;;-1.04;100.00;99866.53;4176452;28;20852;-51
2024/01/29 07:21:09;;;;;;;5.13;3.60;;;;;;;-0.96;100.00;99863.97;4180710;28;20204;-52
2024/01/29 07:23:11;;;;;;;3.10;2.90;;;;;;;-1.03;100.00;99867.34;4173497;28;20228;-51
2024/01/29 07:25:13;;;;;;;3.87;3.57;;;;;;;-1.02;100.00;99874.44;4184627;28;20200;-52
2024/01/29 07:27:18;;;;;;;3.60;3.40;;;;;;;-0.98;100.00;99874.00;4175893;28;20235;-51
2024/01/29 07:29:19;;;;;;;3.57;3.27;;;;;;;-0.97;100.00;99877.53;4174443;28;20663;-52
2024/01/29 07:31:21;;;;;;;3.97;3.67;;;;;;;-0.98;100.00;99886.59;4178161;28;20242;-52
2024/01/29 07:33:23;;;;;;;4.93;4.20;;;;;;;-0.97;100.00;99889.13;4187968;28;20760;-52
2024/01/29 07:35:25;;;;;;;5.63;4.50;;;;;;;-0.96;100.00;99884.59;4189441;28;20290;-52
2024/01/29 07:37:27;;;;;;;3.43;3.23;;;;;;;-0.91;100.00;99893.06;4184762;28;20228;-53
2024/01/29 07:39:29;;;;;;;3.97;3.67;;;;;;;-0.89;100.00;99889.25;4188804;28;20211;-53
2024/01/29 07:41:31;;;;;;;6.43;4.23;;;;;;;-0.86;100.00;99896.19;4186397;28;20227;-52
2024/01/29 07:43:33;;;;;;;3.30;3.10;;;;;;;-0.85;100.00;99892.50;4175038;28;20236;-53
2024/01/29 07:45:35;;;;;;;6.50;4.47;;;;;;;-0.85;100.00;99887.13;4205654;28;20719;-52
2024/01/29 07:47:36;;;;;;;3.90;3.60;;;;;;;-0.86;100.00;99890.81;4184273;28;20208;-53
2024/01/29 07:49:39;;;;;;;2.87;2.67;;;;;;;-0.78;100.00;99893.59;4201384;28;20210;-52
2024/01/29 07:51:41;;;;;;;3.37;3.07;;;;;;;-0.72;100.00;99898.41;4173563;28;20208;-52
2024/01/29 07:53:42;;;;;;;4.50;4.03;;;;;;;-0.71;100.00;99894.72;4203386;28;20692;-51
2024/01/29 07:55:44;;;;;;;6.23;4.10;;;;;;;-0.65;100.00;99899.53;4173930;28;20654;-53
2024/01/29 07:57:46;;;;;;;3.17;2.97;;;;;;;-0.59;100.00;99904.31;4185813;28;20354;-53
2024/01/29 07:59:48;;;;;;;4.87;4.07;;;;;;;-0.53;100.00;99909.97;4203576;28;20565;-52
2024/01/29 08:01:49;;;;;;;4.63;4.10;;;;;;;-0.59;100.00;99915.06;4189709;28;20206;-51
2024/01/29 08:03:51;;;;;;;3.77;3.37;;;;;;;-0.56;100.00;99909.41;4189302;28;20301;-51
2024/01/29 08:05:53;;;;;;;4.30;3.83;;;;;;;-0.58;100.00;99911.38;4189410;28;20302;-51
2024/01/29 08:07:55;;;;;;;3.23;3.03;;;;;;;-0.55;100.00;99913.78;4172827;28;20299;-52
2024/01/29 08:10:00;;;;;;;10.17;5.33;;;;;;;-0.52;100.00;99910.78;4190681;28;20677;-52
2024/01/29 08:12:05;;;;;;;19.10;6.13;;;;;;;-0.43;100.00;99916.16;4186953;28;20294;-52
2024/01/29 08:14:06;;;;;;;27.17;6.17;;;;;;;-0.43;100.00;99907.22;4186520;28;20288;-52
2024/01/29 08:16:08;;;;;;;11.47;8.83;;;;;;;-0.44;100.00;99914.44;4191429;28;20231;-52
2024/01/29 08:18:10;;;;;;;9.73;8.40;;;;;;;-0.34;100.00;99914.41;4198472;28;20207;-52
2024/01/29 08:20:12;;;;;;;18.10;9.33;;;;;;;-0.24;100.00;99909.84;4199348;28;20250;-53
2024/01/29 08:22:15;;;;;;;7.27;6.50;;;;;;;-0.24;100.00;99910.69;4188974;28;20245;-55
2024/01/29 08:24:16;;;;;;;15.13;8.43;;;;;;;0.05;100.00;99912.25;4185164;28;20304;-52
2024/01/29 08:26:18;;;;;;;19.97;8.20;;;;;;;0.60;100.00;99908.50;4200056;28;20199;-52
2024/01/29 08:28:20;;;;;;;9.65;8.73;;;;;;;1.28;100.00;99912.28;4201607;28;20206;-53
2024/01/29 08:30:22;;;;;;;7.95;7.35;;;;;;;1.73;100.00;99910.22;4202194;28;21086;-53
2024/01/29 08:32:24;;;;;;;5.90;5.38;;;;;;;2.18;100.00;99910.75;4187957;28;20204;-52
2024/01/29 08:34:51;;;;;;;5.50;4.85;;;;;;;2.56;100.00;99911.06;4188111;28;20731;-54
2024/01/29 08:37:22;;;;;;;6.13;5.45;;;;;;;3.07;100.00;99910.78;4198727;28;20223;-53
2024/01/29 08:39:34;;;;;;;9.50;8.32;;;;;;;3.28;100.00;99913.81;4197595;28;20250;-53
2024/01/29 08:41:36;;;;;;;4.97;4.57;;;;;;;3.56;100.00;99914.31;4191944;28;20640;-54
2024/01/29 08:43:37;;;;;;;4.05;3.75;;;;;;;3.71;100.00;99926.13;4182194;28;20681;-54
2024/01/29 08:45:39;;;;;;;5.13;4.63;;;;;;;4.00;100.00;99927.22;4200764;28;20210;-53
2024/01/29 08:47:41;;;;;;;4.25;3.85;;;;;;;4.26;100.00;99925.09;4203479;28;20297;-55
2024/01/29 08:49:42;;;;;;;3.28;3.00;;;;;;;4.35;100.00;99921.31;4172472;28;20218;-53
2024/01/29 08:51:45;;;;;;;2.97;2.78;;;;;;;3.80;100.00;99930.50;4192863;28;20207;-54
2024/01/29 08:53:47;;;;;;;3.53;3.25;;;;;;;4.46;100.00;99922.81;4192575;28;20259;-52
2024/01/29 08:55:48;;;;;;;3.85;3.50;;;;;;;4.71;100.00;99922.50;4190078;28;20245;-52
2024/01/29 08:57:50;;;;;;;7.70;3.67;;;;;;;4.95;100.00;99919.66;4190340;28;20223;-54
2024/01/29 08:59:52;;;;;;;4.15;3.75;;;;;;;5.48;100.00;99919.53;4192295;28;20222;-55
2024/01/29 09:01:54;;;;;;;3.22;3.00;;;;;;;5.88;96.22;99919.19;4186936;28;20219;-52
2024/01/29 09:03:56;;;;;;;2.53;2.33;;;;;;;6.39;90.72;99918.22;4187298;28;20259;-51
2024/01/29 09:05:58;;;;;;;3.85;3.25;;;;;;;6.73;86.81;99915.72;4188294;28;20215;-55
2024/01/29 09:08:00;;;;;;;3.05;2.85;;;;;;;6.94;86.12;99913.03;4184407;28;20204;-55
2024/01/29 09:10:13;;;;;;;4.63;4.20;;;;;;;6.36;90.31;99913.19;4185021;28;20838;-56
2024/01/29 09:12:15;;;;;;;4.72;3.42;;;;;;;6.52;85.10;99921.13;4191647;28;20207;-54
2024/01/29 09:14:21;;;;;;;3.45;3.03;;;;;;;6.61;83.67;99922.69;4201210;28;20206;-53
2024/01/29 09:16:23;;;;;;;3.47;3.17;;;;;;;7.00;84.96;99923.16;4178304;28;20596;-54
2024/01/29 09:18:24;;;;;;;3.30;3.10;;;;;;;7.58;81.56;99920.16;4178279;28;20208;-51
2024/01/29 09:20:27;;;;;;;2.92;2.70;;;;;;;6.87;78.90;99921.13;4189945;28;20252;-52
2024/01/29 09:22:29;;;;;;;3.47;3.17;;;;;;;7.59;79.20;99927.28;4192202;28;20218;-53
2024/01/29 09:24:31;;;;;;;4.13;3.08;;;;;;;7.68;76.58;99934.31;4189959;28;20614;-53
2024/01/29 09:26:34;;;;;;;3.33;3.13;;;;;;;7.68;74.79;99934.31;4188296;28;20231;-54
2024/01/29 09:28:37;;;;;;;3.50;3.28;;;;;;;7.60;77.44;99937.16;4206164;28;20207;-55
2024/01/29 09:30:39;;;;;;;5.45;3.67;;;;;;;7.03;77.74;99933.66;4189214;28;20302;-53